createdAt,value
2022-08-18T00:01:42.453Z,69375.06
2022-08-18T00:04:21.761Z,69321.09
2022-08-18T00:06:59.788Z,69296.94
2022-08-18T00:09:32.011Z,69286.19
2022-08-18T00:12:03.155Z,69278.28
2022-08-18T00:14:30.875Z,69261.56
2022-08-18T00:16:58.782Z,69284.00
2022-08-18T00:19:46.827Z,69257.94
2022-08-18T00:22:18.743Z,69253.00
2022-08-18T00:24:49.661Z,69206.63
2022-08-18T00:27:21.593Z,69222.78
2022-08-18T00:29:50.457Z,69176.75
2022-08-18T00:32:26.705Z,69132.34
2022-08-18T00:34:54.822Z,69126.81
2022-08-18T00:37:23.798Z,69144.88
2022-08-18T00:39:53.076Z,69116.69
2022-08-18T00:42:30.537Z,69104.41
2022-08-18T00:45:02.459Z,69098.47
2022-08-18T00:47:41.301Z,69064.25
2022-08-18T00:50:19.460Z,69069.16
2022-08-18T00:52:58.924Z,69046.91
2022-08-18T00:55:27.842Z,69018.88
2022-08-18T00:58:03.017Z,69045.03
2022-08-18T01:00:30.649Z,69024.25
2022-08-18T01:03:03.842Z,69012.78
2022-08-18T01:05:41.156Z,68960.66
2022-08-18T01:08:12.103Z,68966.75
2022-08-18T01:10:41.319Z,68902.22
2022-08-18T01:13:09.276Z,68916.84
2022-08-18T01:15:37.921Z,68918.81
2022-08-18T01:18:29.031Z,68884.22
2022-08-18T01:21:40.090Z,68918.16
2022-08-18T01:24:12.902Z,68841.31
2022-08-18T01:26:50.101Z,68879.44
2022-08-18T01:29:19.706Z,68768.03
2022-08-18T01:31:57.315Z,68754.69
2022-08-18T01:34:28.360Z,68700.94
2022-08-18T01:36:56.686Z,68708.97
2022-08-18T01:41:27.239Z,68684.22
2022-08-18T01:42:14.864Z,68634.28
2022-08-18T01:44:42.054Z,68608.38
2022-08-18T01:47:12.701Z,68625.44
2022-08-18T01:49:43.037Z,68568.88
2022-08-18T01:52:21.675Z,68603.47
2022-08-18T01:54:50.615Z,68540.09
2022-08-18T01:57:20.363Z,68520.19
2022-08-18T01:59:47.581Z,68456.69
2022-08-18T02:02:27.606Z,68484.28
2022-08-18T02:05:02.669Z,68517.75
2022-08-18T02:07:35.971Z,68440.94
2022-08-18T02:10:07.199Z,68454.91
2022-08-18T02:12:41.536Z,68372.81
2022-08-18T02:15:10.240Z,68410.84
2022-08-18T02:17:43.884Z,68421.41
2022-08-18T02:20:15.750Z,68366.91
2022-08-18T02:22:44.561Z,68354.47
2022-08-18T02:25:13.730Z,68319.72
2022-08-18T02:27:40.857Z,68341.19
2022-08-18T02:30:13.376Z,68325.94
2022-08-18T02:32:41.856Z,68260.97
2022-08-18T02:35:11.741Z,68234.72
2022-08-18T02:37:42.057Z,68265.22
2022-08-18T02:40:14.804Z,68227.38
2022-08-18T02:42:43.733Z,68214.22
2022-08-18T02:45:12.939Z,68188.53
2022-08-18T02:47:40.335Z,68192.63
2022-08-18T02:50:11.177Z,68170.47
2022-08-18T02:52:40.379Z,68134.19
2022-08-18T02:55:08.988Z,68172.31
2022-08-18T02:57:36.477Z,68066.50
2022-08-18T03:00:04.893Z,68098.63
2022-08-18T03:02:32.407Z,68113.59
2022-08-18T03:04:59.629Z,68095.53
2022-08-18T03:07:26.695Z,68007.31
2022-08-18T03:09:53.741Z,67984.03
2022-08-18T03:12:20.813Z,67838.47
2022-08-18T03:14:47.872Z,67854.66
2022-08-18T03:17:15.095Z,67853.44
2022-08-18T03:19:45.000Z,67765.16
2022-08-18T03:22:27.685Z,67792.63
2022-08-18T03:24:57.227Z,67763.41
2022-08-18T03:27:24.843Z,67730.16
2022-08-18T03:29:52.233Z,67710.03
2022-08-18T03:32:19.242Z,67717.88
2022-08-18T03:34:46.258Z,67700.91
2022-08-18T03:37:16.111Z,67668.47
2022-08-18T03:39:43.358Z,67627.13
2022-08-18T03:42:10.559Z,67686.97
2022-08-18T03:44:37.557Z,67680.47
2022-08-18T03:47:10.197Z,67564.13
2022-08-18T03:49:37.803Z,67637.84
2022-08-18T03:52:10.328Z,67639.03
2022-08-18T03:54:38.881Z,67602.78
2022-08-18T03:57:09.897Z,67632.53
2022-08-18T03:59:38.143Z,67651.72
2022-08-18T04:02:05.621Z,67617.56
2022-08-18T04:04:32.971Z,67626.94
2022-08-18T04:07:10.024Z,67661.81
2022-08-18T04:09:38.985Z,67677.91
2022-08-18T04:12:16.576Z,67686.50
2022-08-18T04:14:49.199Z,67681.56
2022-08-18T04:17:29.081Z,67635.66
2022-08-18T04:19:56.952Z,67634.53
2022-08-18T04:22:26.413Z,67633.53
2022-08-18T04:24:54.471Z,67582.34
2022-08-18T04:27:22.749Z,67639.34
2022-08-18T04:29:50.433Z,67536.66
2022-08-18T04:32:19.460Z,67589.81
2022-08-18T04:34:46.694Z,67549.63
2022-08-18T04:37:15.491Z,67566.00
2022-08-18T04:39:44.101Z,67498.41
2022-08-18T04:42:11.618Z,67472.28
2022-08-18T04:44:38.868Z,67480.91
2022-08-18T04:47:13.298Z,67458.22
2022-08-18T04:49:40.592Z,67422.56
2022-08-18T04:52:40.867Z,67457.22
2022-08-18T04:55:10.589Z,67394.97
2022-08-18T04:57:38.421Z,67454.97
2022-08-18T05:00:08.502Z,67447.06
2022-08-18T05:02:35.911Z,67433.75
2022-08-18T05:05:04.397Z,67439.88
2022-08-18T05:07:32.129Z,67436.41
2022-08-18T05:09:59.643Z,67451.03
2022-08-18T05:12:27.054Z,67489.91
2022-08-18T05:14:57.322Z,67507.78
2022-08-18T05:17:29.137Z,67481.63
2022-08-18T05:20:01.749Z,67466.75
2022-08-18T05:22:31.330Z,67495.03
2022-08-18T05:25:00.419Z,67439.13
2022-08-18T05:27:36.363Z,67444.72
2022-08-18T05:30:07.431Z,67450.06
2022-08-18T05:32:49.635Z,67478.47
2022-08-18T05:35:30.818Z,67435.09
2022-08-18T05:38:13.870Z,67478.03
2022-08-18T05:40:43.073Z,67574.31
2022-08-18T05:43:11.218Z,67501.97
2022-08-18T05:45:41.775Z,67493.91
2022-08-18T05:48:09.044Z,67442.56
2022-08-18T05:50:37.991Z,67429.81
2022-08-18T05:53:17.097Z,67467.72
2022-08-18T05:56:23.236Z,67476.16
2022-08-18T05:58:55.707Z,67426.88
2022-08-18T06:01:41.547Z,67427.72
2022-08-18T06:04:23.627Z,67369.78
2022-08-18T06:06:52.779Z,67424.31
2022-08-18T06:09:51.179Z,67436.53
2022-08-18T06:12:40.123Z,67301.81
2022-08-18T06:15:27.618Z,67417.81
2022-08-18T06:18:26.547Z,67455.16
2022-08-18T06:21:19.843Z,67477.63
2022-08-18T06:24:34.933Z,67501.75
2022-08-18T06:27:14.569Z,67497.53
2022-08-18T06:30:07.528Z,67489.94
2022-08-18T06:33:29.681Z,67407.09
2022-08-18T06:36:32.419Z,67404.66
2022-08-18T06:39:23.512Z,67401.88
2022-08-18T06:41:53.632Z,67405.94
2022-08-18T06:44:45.676Z,67450.94
2022-08-18T06:47:16.116Z,67481.97
2022-08-18T06:50:21.958Z,67510.72
2022-08-18T06:53:02.170Z,67523.63
2022-08-18T06:55:40.296Z,67619.63
2022-08-18T06:58:27.822Z,67552.97
2022-08-18T07:01:04.790Z,67550.81
2022-08-18T07:04:04.333Z,67496.59
2022-08-18T07:06:32.167Z,67568.72
2022-08-18T07:09:21.095Z,67586.75
2022-08-18T07:12:10.976Z,67577.69
2022-08-18T07:15:05.735Z,67559.34
2022-08-18T07:17:42.390Z,67549.28
2022-08-18T07:20:24.372Z,67589.25
2022-08-18T07:23:00.229Z,67575.56
2022-08-18T07:25:44.168Z,67524.97
2022-08-18T07:28:34.042Z,67547.66
2022-08-18T07:31:19.432Z,67540.59
2022-08-18T07:34:38.390Z,67557.91
2022-08-18T07:37:29.076Z,67578.59
2022-08-18T07:40:14.157Z,67598.22
2022-08-18T07:43:06.300Z,67626.22
2022-08-18T07:45:42.526Z,67626.06
2022-08-18T07:48:37.542Z,67743.16
2022-08-18T07:51:20.129Z,67706.22
2022-08-18T07:54:50.456Z,67723.25
2022-08-18T07:57:42.042Z,67806.69
2022-08-18T08:00:41.487Z,67817.78
2022-08-18T08:03:16.912Z,67781.84
2022-08-18T08:06:00.146Z,67775.84
2022-08-18T08:08:39.836Z,67825.72
2022-08-18T08:11:13.001Z,67883.16
2022-08-18T08:14:07.127Z,67884.91
2022-08-18T08:16:48.843Z,67860.84
2022-08-18T08:19:58.746Z,67852.56
2022-08-18T08:22:40.829Z,67885.63
2022-08-18T08:25:46.168Z,67853.69
2022-08-18T08:28:35.831Z,67843.66
2022-08-18T08:31:37.165Z,67800.81
2022-08-18T08:34:37.935Z,67716.25
2022-08-18T08:37:14.875Z,67861.13
2022-08-18T08:39:59.412Z,67793.59
2022-08-18T08:42:45.398Z,67500.16
2022-08-18T08:45:23.507Z,67265.66
2022-08-18T08:48:20.458Z,67536.41
2022-08-18T08:51:23.073Z,67798.19
2022-08-18T08:54:24.938Z,67933.75
2022-08-18T08:56:56.298Z,68115.91
2022-08-18T08:59:25.721Z,68189.63
2022-08-18T09:02:27.124Z,68572.81
2022-08-18T09:05:49.311Z,68739.78
2022-08-18T09:08:48.580Z,68779.97
2022-08-18T09:11:45.043Z,68718.88
2022-08-18T09:14:33.854Z,68637.84
2022-08-18T09:17:38.816Z,68698.97
2022-08-18T09:20:37.637Z,68555.88
2022-08-18T09:23:10.473Z,68453.41
2022-08-18T09:25:43.835Z,68649.72
2022-08-18T09:28:19.252Z,68714.00
2022-08-18T09:30:49.206Z,68727.41
2022-08-18T09:33:22.969Z,68946.56
2022-08-18T09:36:13.520Z,69059.50
2022-08-18T09:39:18.524Z,69044.59
2022-08-18T09:42:07.144Z,69113.47
2022-08-18T09:44:47.394Z,69109.16
2022-08-18T09:47:21.798Z,69169.13
2022-08-18T09:49:57.841Z,69114.25
2022-08-18T09:52:48.789Z,69255.28
2022-08-18T09:55:19.775Z,69269.47
2022-08-18T09:57:47.937Z,69331.84
2022-08-18T10:00:28.360Z,69261.72
2022-08-18T10:02:56.162Z,69332.75
2022-08-18T10:05:31.179Z,69346.50
2022-08-18T10:08:05.454Z,69298.91
2022-08-18T10:11:01.326Z,69359.09
2022-08-18T10:14:06.663Z,69337.75
2022-08-18T10:17:15.955Z,69327.06
2022-08-18T10:19:48.558Z,69439.94
2022-08-18T10:22:43.200Z,69339.78
2022-08-18T10:25:22.727Z,69384.44
2022-08-18T10:27:55.609Z,69400.63
2022-08-18T10:30:30.497Z,69439.34
2022-08-18T10:33:17.601Z,69358.50
2022-08-18T10:36:03.193Z,69431.44
2022-08-18T10:38:49.138Z,69411.63
2022-08-18T10:41:26.149Z,69433.97
2022-08-18T10:43:57.397Z,69425.44
2022-08-18T10:46:46.795Z,69459.91
2022-08-18T10:49:14.257Z,69452.75
2022-08-18T10:52:03.083Z,69464.09
2022-08-18T10:55:22.236Z,69406.91
2022-08-18T10:58:04.350Z,69406.94
2022-08-18T11:00:50.517Z,69427.84
2022-08-18T11:03:56.002Z,69411.94
2022-08-18T11:06:25.808Z,69393.19
2022-08-18T11:09:00.673Z,69348.84
2022-08-18T11:11:53.158Z,69330.16
2022-08-18T11:14:30.103Z,69355.69
2022-08-18T11:17:19.484Z,69361.16
2022-08-18T11:19:50.914Z,69382.03
2022-08-18T11:22:32.285Z,69347.06
2022-08-18T11:25:03.333Z,69372.16
2022-08-18T11:27:35.860Z,69355.91
2022-08-18T11:30:06.115Z,69433.56
2022-08-18T11:32:42.510Z,69398.88
2022-08-18T11:35:36.289Z,69449.69
2022-08-18T11:38:12.347Z,69493.75
2022-08-18T11:43:40.855Z,69513.97
2022-08-18T11:46:38.920Z,69496.81
2022-08-18T11:49:44.087Z,69438.28
2022-08-18T11:58:12.675Z,69434.03
2022-08-18T12:00:46.553Z,69469.56
2022-08-18T12:03:31.866Z,69471.06
2022-08-18T12:06:19.446Z,69417.59
2022-08-18T12:08:57.134Z,69442.06
2022-08-18T12:11:32.951Z,69411.72
2022-08-18T12:14:31.799Z,69455.63
2022-08-18T12:16:57.803Z,69455.03
2022-08-18T12:19:30.597Z,69361.38
2022-08-18T12:22:00.841Z,69390.28
2022-08-18T12:24:36.437Z,69428.03
2022-08-18T12:27:20.429Z,69378.63
2022-08-18T12:29:50.854Z,69396.31
2022-08-18T12:32:47.144Z,69464.38
2022-08-18T12:35:11.552Z,69394.59
2022-08-18T12:38:00.058Z,69376.94
2022-08-18T12:40:29.924Z,69322.81
2022-08-18T12:42:57.758Z,69337.84
2022-08-18T12:45:27.267Z,69336.59
2022-08-18T12:47:54.997Z,69381.09
2022-08-18T12:50:30.794Z,69294.03
2022-08-18T12:53:00.336Z,69334.00
2022-08-18T12:55:31.555Z,69342.34
2022-08-18T12:57:59.682Z,69400.28
2022-08-18T13:00:28.971Z,69341.31
2022-08-18T13:02:57.590Z,69360.16
2022-08-18T13:05:26.655Z,69324.41
2022-08-18T13:08:04.227Z,69401.03
2022-08-18T13:10:45.194Z,69403.47
2022-08-18T13:13:15.259Z,69369.00
2022-08-18T13:15:44.261Z,69392.72
2022-08-18T13:18:28.968Z,69417.28
2022-08-18T13:20:58.802Z,69355.69
2022-08-18T13:23:30.552Z,69348.94
2022-08-18T13:26:02.038Z,69329.06
2022-08-18T13:28:36.158Z,69357.19
2022-08-18T13:31:23.339Z,69315.03
2022-08-18T13:33:58.009Z,69258.38
2022-08-18T13:36:45.999Z,69219.94
2022-08-18T13:39:24.276Z,69263.06
2022-08-18T13:41:53.767Z,69187.66
2022-08-18T13:44:22.728Z,69198.44
2022-08-18T13:46:56.113Z,69214.81
2022-08-18T13:49:30.104Z,69205.41
2022-08-18T13:52:00.341Z,69264.91
2022-08-18T13:54:35.155Z,69270.19
2022-08-18T13:57:05.058Z,69189.88
2022-08-18T13:59:34.506Z,69161.50
2022-08-18T14:02:05.805Z,69160.16
2022-08-18T14:04:36.317Z,69110.31
2022-08-18T14:07:09.621Z,69185.22
2022-08-18T14:09:38.507Z,69136.31
2022-08-18T14:12:23.925Z,69140.59
2022-08-18T14:14:55.718Z,69108.81
2022-08-18T14:17:27.200Z,69129.69
2022-08-18T14:20:15.262Z,69139.47
2022-08-18T14:23:12.352Z,69178.41
2022-08-18T14:25:59.968Z,69223.16
2022-08-18T14:28:31.965Z,69204.75
2022-08-18T14:31:03.089Z,69204.50
2022-08-18T14:33:51.114Z,69255.66
2022-08-18T14:36:20.388Z,69237.41
2022-08-18T14:38:58.891Z,69213.56
2022-08-18T14:41:27.305Z,69213.81
2022-08-18T14:44:13.000Z,69135.38
2022-08-18T14:46:52.378Z,69207.00
2022-08-18T14:49:28.390Z,69167.81
2022-08-18T14:52:00.320Z,69157.94
2022-08-18T14:54:30.051Z,69126.78
2022-08-18T14:57:01.723Z,69162.72
2022-08-18T14:59:34.615Z,69128.94
2022-08-18T15:02:11.242Z,69134.59
2022-08-18T15:04:55.915Z,69165.34
2022-08-18T15:07:24.468Z,69152.09
2022-08-18T15:09:51.857Z,69190.72
2022-08-18T15:12:39.682Z,69160.47
2022-08-18T15:15:12.271Z,69146.16
2022-08-18T15:17:49.557Z,69128.13
2022-08-18T15:20:28.591Z,69185.44
2022-08-18T15:23:24.845Z,69100.63
2022-08-18T15:25:56.552Z,69138.91
2022-08-18T15:28:27.984Z,69155.84
2022-08-18T15:33:42.908Z,69163.00
2022-08-18T15:36:10.686Z,69142.31
2022-08-18T15:38:43.837Z,69152.47
2022-08-18T15:41:26.877Z,69149.00
2022-08-18T15:43:55.469Z,69099.69
2022-08-18T15:46:24.407Z,69053.81
2022-08-18T15:48:54.825Z,69106.16
2022-08-18T15:51:22.597Z,69135.41
2022-08-18T15:53:50.878Z,69135.94
2022-08-18T15:56:22.751Z,69108.66
2022-08-18T15:58:53.841Z,69140.28
2022-08-18T16:01:32.204Z,69134.06
2022-08-18T16:04:02.421Z,69122.63
2022-08-18T16:06:32.729Z,69107.22
2022-08-18T16:09:01.824Z,69106.34
2022-08-18T16:11:30.446Z,69154.16
2022-08-18T16:13:59.196Z,69076.22
2022-08-18T16:16:35.611Z,69098.31
2022-08-18T16:19:05.909Z,69127.00
2022-08-18T16:21:34.018Z,69130.47
2022-08-18T16:24:01.563Z,69115.75
2022-08-18T16:26:29.013Z,69115.31
2022-08-18T16:29:00.186Z,69120.88
2022-08-18T16:31:29.565Z,69120.50
2022-08-18T16:33:57.934Z,69143.16
2022-08-18T16:36:26.394Z,69089.81
2022-08-18T16:38:56.134Z,69078.72
2022-08-18T16:41:26.674Z,69127.56
2022-08-18T16:43:54.479Z,69091.59
2022-08-18T16:46:26.449Z,69087.63
2022-08-18T16:48:58.317Z,69069.19
2022-08-18T16:51:27.973Z,69077.97
2022-08-18T16:53:55.520Z,69069.13
2022-08-18T16:56:26.518Z,69129.69
2022-08-18T16:59:13.109Z,69070.91
2022-08-18T17:01:59.534Z,69078.09
2022-08-18T17:04:33.405Z,69081.03
2022-08-18T17:07:03.230Z,68815.59
2022-08-18T17:09:31.186Z,69052.22
2022-08-18T17:11:59.184Z,69044.66
2022-08-18T17:14:30.067Z,69058.50
2022-08-18T17:16:58.437Z,69039.84
2022-08-18T17:19:31.188Z,69068.25
2022-08-18T17:21:59.087Z,69021.59
2022-08-18T17:24:31.288Z,68721.16
2022-08-18T17:27:16.610Z,68943.09
2022-08-18T17:30:07.159Z,69002.09
2022-08-18T17:32:46.681Z,69044.19
2022-08-18T17:35:26.958Z,68973.47
2022-08-18T17:38:22.131Z,68965.06
2022-08-18T17:40:54.410Z,68997.34
2022-08-18T17:43:24.896Z,68952.28
2022-08-18T17:46:10.274Z,68953.88
2022-08-18T17:48:44.402Z,68940.88
2022-08-18T17:51:34.381Z,68944.22
2022-08-18T17:54:27.580Z,68933.09
2022-08-18T17:57:01.591Z,68949.81
2022-08-18T17:59:51.775Z,68962.09
2022-08-18T18:02:29.242Z,68969.78
2022-08-18T18:05:06.650Z,68993.47
2022-08-18T18:07:53.583Z,68974.38
2022-08-18T18:10:51.002Z,68954.28
2022-08-18T18:13:32.919Z,68961.84
2022-08-18T18:16:20.565Z,68932.59
2022-08-18T18:18:59.780Z,68932.91
2022-08-18T18:21:58.947Z,68911.69
2022-08-18T18:24:17.715Z,68928.81
2022-08-18T18:26:52.277Z,68915.47
2022-08-18T18:29:33.415Z,68902.25
2022-08-18T18:32:39.873Z,68889.34
2022-08-18T18:35:16.376Z,68870.13
2022-08-18T18:37:57.506Z,68863.75
2022-08-18T18:40:50.427Z,68818.44
2022-08-18T18:43:25.424Z,68822.78
2022-08-18T18:46:25.202Z,68810.41
2022-08-18T18:49:10.602Z,68745.09
2022-08-18T18:52:06.206Z,68708.44
2022-08-18T18:55:14.755Z,68683.97
2022-08-18T18:58:07.153Z,68696.50
2022-08-18T19:00:55.930Z,68574.75
2022-08-18T19:03:48.891Z,68523.69
2022-08-18T19:06:34.560Z,68509.81
2022-08-18T19:09:16.920Z,68439.81
2022-08-18T19:12:05.282Z,68379.53
2022-08-18T19:14:59.862Z,68387.88
2022-08-18T19:17:51.345Z,68308.47
2022-08-18T19:20:27.294Z,68305.63
2022-08-18T19:23:06.435Z,68321.66
2022-08-18T19:25:41.223Z,68405.22
2022-08-18T19:28:30.217Z,68312.19
2022-08-18T19:31:02.653Z,68281.31
2022-08-18T19:33:44.982Z,68294.16
2022-08-18T19:36:39.576Z,68304.19
2022-08-18T19:39:46.869Z,68302.97
2022-08-18T19:42:22.500Z,68266.47
2022-08-18T19:45:16.514Z,68313.09
2022-08-18T19:47:52.863Z,68332.78
2022-08-18T19:50:32.620Z,68320.28
2022-08-18T19:53:15.086Z,68298.13
2022-08-18T19:55:54.050Z,68317.16
2022-08-18T19:58:35.131Z,68284.72
2022-08-18T20:01:21.002Z,68279.56
2022-08-18T20:04:01.217Z,68234.78
2022-08-18T20:07:01.415Z,68219.47
2022-08-18T20:10:02.022Z,68152.63
2022-08-18T20:13:10.833Z,68086.63
2022-08-18T20:16:05.034Z,68021.03
2022-08-18T20:18:48.975Z,67935.13
2022-08-18T20:21:22.460Z,67842.50
2022-08-18T20:24:05.905Z,67837.56
2022-08-18T20:26:39.097Z,67739.13
2022-08-18T20:29:11.993Z,67715.56
2022-08-18T20:31:45.536Z,67627.94
2022-08-18T20:34:15.226Z,67550.41
2022-08-18T20:36:45.166Z,67438.59
2022-08-18T20:39:33.935Z,67353.91
2022-08-18T20:42:02.794Z,67288.53
2022-08-18T20:45:03.920Z,67168.16
2022-08-18T20:47:49.012Z,67086.72
2022-08-18T20:50:59.267Z,67053.25
2022-08-18T20:53:57.368Z,66946.38
2022-08-18T20:56:43.823Z,66873.41
2022-08-18T20:59:22.217Z,66817.72
2022-08-18T21:02:07.403Z,66795.06
2022-08-18T21:04:47.701Z,66726.09
2022-08-18T21:07:37.155Z,66709.72
2022-08-18T21:10:22.910Z,66622.41
2022-08-18T21:12:53.788Z,66586.75
2022-08-18T21:15:28.300Z,66536.66
2022-08-18T21:18:00.743Z,66439.56
2022-08-18T21:20:29.425Z,66412.13
2022-08-18T21:23:09.327Z,66327.38
2022-08-18T21:25:40.818Z,66286.41
2022-08-18T21:28:08.307Z,66123.69
2022-08-18T21:30:35.897Z,65955.56
2022-08-18T21:33:20.056Z,65885.53
2022-08-18T21:35:47.986Z,65752.38
2022-08-18T21:38:24.289Z,65550.44
2022-08-18T21:40:57.157Z,65300.06
2022-08-18T21:44:01.294Z,65156.34
2022-08-18T21:46:30.566Z,64977.06
2022-08-18T21:49:00.517Z,64783.81
2022-08-18T21:51:31.431Z,64692.28
2022-08-18T21:54:00.463Z,64521.69
2022-08-18T21:56:31.812Z,64309.59
2022-08-18T21:59:14.359Z,64056.78
2022-08-18T22:01:51.912Z,62905.41
2022-08-18T22:04:26.885Z,63113.09
2022-08-18T22:07:00.617Z,62618.84
2022-08-18T22:09:50.475Z,62168.56
2022-08-18T22:12:55.387Z,61608.66
2022-08-18T22:15:41.785Z,61039.34
2022-08-18T22:18:18.289Z,60449.44
2022-08-18T22:20:56.219Z,60142.78
2022-08-18T22:23:58.679Z,59820.63
2022-08-18T22:26:36.959Z,59144.44
2022-08-18T22:29:07.359Z,59231.31
2022-08-18T22:31:50.760Z,58991.91
2022-08-18T22:34:27.751Z,58859.19
2022-08-18T22:37:16.934Z,58715.22
2022-08-18T22:39:53.731Z,58611.06
2022-08-18T22:42:24.476Z,58614.50
2022-08-18T22:44:52.733Z,58658.53
2022-08-18T22:47:21.158Z,58440.41
2022-08-18T22:49:48.606Z,58394.50
2022-08-18T22:52:33.003Z,58440.66
2022-08-18T22:55:07.913Z,58379.53
2022-08-18T22:57:37.638Z,58323.19
2022-08-18T23:00:14.617Z,58208.66
2022-08-18T23:02:42.622Z,58245.06
2022-08-18T23:05:10.990Z,58188.72
2022-08-18T23:07:38.125Z,58235.34
2022-08-18T23:10:13.944Z,58312.28
2022-08-18T23:12:43.527Z,58324.94
2022-08-18T23:15:11.746Z,58330.50
2022-08-18T23:17:41.527Z,58237.06
2022-08-18T23:20:18.002Z,58240.34
2022-08-18T23:22:46.265Z,58142.97
2022-08-18T23:25:14.314Z,58198.72
2022-08-18T23:27:42.876Z,58215.56
2022-08-18T23:30:10.864Z,58191.38
2022-08-18T23:32:37.981Z,57745.84
2022-08-18T23:35:05.789Z,58093.88
2022-08-18T23:37:33.006Z,58031.03
2022-08-18T23:40:00.218Z,58016.00
2022-08-18T23:42:27.455Z,58145.22
2022-08-18T23:44:58.904Z,58115.31
2022-08-18T23:47:26.246Z,57937.38
2022-08-18T23:49:54.363Z,57933.34
2022-08-18T23:52:21.670Z,57903.19
2022-08-18T23:54:48.808Z,57932.41
2022-08-18T23:57:15.983Z,57963.75
2022-08-18T23:59:43.031Z,57831.25
